Time;durP1;ratioP1;P1;durP2;ratioP2;P2;SDS_P1;SDS_P2;PMS_P1;PMS_P2;Temp;Humidity;BMP_temperature;BMP_pressure;BME280_temperature;BME280_humidity;BME280_pressure;Samples;Min_cycle;Max_cycle;Signal;HPM_P1;HPM_P2
2022/10/25 00:02:15;;;;;;;9.07;3.67;;;14.50;99.90;;;;;;5065975;28;20642;-72
2022/10/25 00:04:41;;;;;;;5.90;3.22;;;14.50;99.90;;;;;;5050737;28;20603;-72
2022/10/25 00:07:07;;;;;;;7.75;2.97;;;14.50;99.90;;;;;;5064297;28;20268;-72
2022/10/25 00:09:32;;;;;;;4.50;2.72;;;14.60;99.90;;;;;;5067604;28;20251;-73
2022/10/25 00:11:58;;;;;;;7.20;3.00;;;14.60;99.90;;;;;;5065738;28;20206;-72
2022/10/25 00:14:23;;;;;;;7.15;3.28;;;14.60;99.90;;;;;;5045323;28;20183;-73
2022/10/25 00:16:49;;;;;;;6.22;3.63;;;14.60;99.90;;;;;;5047572;28;20218;-72
2022/10/25 00:19:15;;;;;;;7.28;2.90;;;14.60;99.90;;;;;;5064777;28;20215;-73
2022/10/25 00:21:40;;;;;;;8.57;2.80;;;14.60;99.90;;;;;;5062913;28;20217;-72
2022/10/25 00:24:06;;;;;;;5.93;3.05;;;14.50;99.90;;;;;;5059257;28;20218;-73
2022/10/25 00:26:33;;;;;;;8.35;3.28;;;14.50;99.90;;;;;;5068062;28;20206;-72
2022/10/25 00:28:59;;;;;;;7.20;3.67;;;14.40;99.90;;;;;;5063731;28;20179;-72
2022/10/25 00:31:24;;;;;;;9.15;4.18;;;14.40;99.90;;;;;;5062757;28;20203;-73
2022/10/25 00:33:50;;;;;;;8.57;3.05;;;14.40;99.90;;;;;;5065065;28;20632;-72
2022/10/25 00:36:24;;;;;;;7.32;3.60;;;14.40;99.90;;;;;;5066203;28;20696;-72
2022/10/25 00:38:51;;;;;;;7.60;3.47;;;14.40;99.90;;;;;;5061337;28;20207;-72
2022/10/25 00:41:22;;;;;;;11.35;4.25;;;14.30;99.90;;;;;;5044370;28;20537;-72
2022/10/25 00:43:50;;;;;;;7.95;3.65;;;14.30;99.90;;;;;;5064720;28;20211;-73
2022/10/25 00:46:25;;;;;;;9.05;3.72;;;14.30;99.90;;;;;;5064689;28;20221;-72
2022/10/25 00:48:54;;;;;;;9.27;3.55;;;14.30;99.90;;;;;;5059517;28;20203;-73
2022/10/25 00:51:26;;;;;;;8.23;3.42;;;14.30;99.90;;;;;;5061328;28;20635;-73
2022/10/25 00:53:52;;;;;;;11.55;4.60;;;14.30;99.90;;;;;;5064117;28;20697;-72
2022/10/25 00:56:26;;;;;;;5.45;3.40;;;14.30;99.90;;;;;;5064189;28;20186;-73
2022/10/25 00:58:57;;;;;;;6.53;3.17;;;14.20;99.90;;;;;;5062243;28;20214;-73
2022/10/25 01:01:24;;;;;;;7.45;3.60;;;14.20;99.90;;;;;;5046520;28;20214;-72
2022/10/25 01:03:53;;;;;;;10.43;3.50;;;14.20;99.90;;;;;;5060882;28;20218;-72
2022/10/25 01:06:29;;;;;;;9.23;4.00;;;14.20;99.90;;;;;;5061621;28;20214;-72
2022/10/25 01:08:55;;;;;;;8.55;4.25;;;14.20;99.90;;;;;;5064772;28;20287;-72
2022/10/25 01:11:21;;;;;;;7.07;3.42;;;14.30;99.90;;;;;;5065210;28;20190;-73
2022/10/25 01:13:47;;;;;;;11.57;3.58;;;14.20;99.90;;;;;;5064074;28;20180;-72
2022/10/25 01:16:29;;;;;;;6.93;3.53;;;14.30;99.90;;;;;;5046285;28;20279;-73
2022/10/25 01:19:03;;;;;;;8.10;3.55;;;14.30;99.90;;;;;;5064030;28;20310;-73
2022/10/25 01:21:38;;;;;;;8.63;3.88;;;14.30;99.90;;;;;;5063757;28;20299;-73
2022/10/25 01:24:11;;;;;;;7.70;4.30;;;14.40;99.90;;;;;;5059830;28;20278;-72
2022/10/25 01:27:03;;;;;;;12.18;4.60;;;14.40;99.90;;;;;;5051614;28;20583;-73
2022/10/25 01:29:46;;;;;;;6.88;4.10;;;14.50;99.90;;;;;;5064287;28;20674;-73
2022/10/25 01:32:27;;;;;;;8.85;3.72;;;14.60;99.90;;;;;;5061768;28;20187;-73
2022/10/25 01:35:02;;;;;;;9.63;3.42;;;14.60;99.90;;;;;;5064391;28;20206;-72
2022/10/25 01:38:01;;;;;;;7.47;3.38;;;14.60;99.90;;;;;;5044518;28;20219;-72
2022/10/25 01:40:44;;;;;;;8.35;3.55;;;14.70;99.90;;;;;;5063666;28;20214;-72
2022/10/25 01:43:18;;;;;;;11.98;3.83;;;14.70;99.90;;;;;;5070314;28;20219;-72
2022/10/25 01:45:59;;;;;;;7.50;3.25;;;14.70;99.90;;;;;;5066551;28;20302;-72
2022/10/25 01:48:32;;;;;;;13.13;3.80;;;14.70;99.90;;;;;;5065887;28;20735;-73
2022/10/25 01:51:14;;;;;;;9.60;4.18;;;14.70;99.90;;;;;;5068901;28;20257;-73
2022/10/25 01:53:44;;;;;;;9.63;3.80;;;14.70;99.90;;;;;;5066806;28;20321;-72
2022/10/25 01:56:12;;;;;;;6.25;3.22;;;14.70;99.90;;;;;;5064671;28;20164;-73
2022/10/25 01:58:51;;;;;;;7.00;3.55;;;14.70;99.90;;;;;;5065348;28;20214;-72
2022/10/25 02:01:28;;;;;;;5.82;3.33;;;14.70;99.90;;;;;;5051807;28;20240;-73
2022/10/25 02:04:09;;;;;;;8.18;3.00;;;14.80;99.90;;;;;;5065128;28;20208;-72
2022/10/25 02:06:47;;;;;;;8.93;3.88;;;14.80;99.90;;;;;;5061479;28;20219;-72
2022/10/25 02:09:40;;;;;;;14.75;3.60;;;14.80;99.90;;;;;;5068372;28;20206;-73
2022/10/25 02:12:11;;;;;;;6.50;3.05;;;14.80;99.90;;;;;;5067987;28;20715;-72
2022/10/25 02:14:38;;;;;;;8.77;3.40;;;14.70;99.90;;;;;;5062377;28;20191;-72
2022/10/25 02:19:54;;;;;;;11.38;3.53;;;14.80;99.90;;;;;;5057287;28;20214;-70
2022/10/25 02:22:24;;;;;;;7.45;3.13;;;14.80;99.90;;;;;;5064097;28;20216;-70
2022/10/25 02:24:52;;;;;;;5.85;3.00;;;14.80;99.90;;;;;;5059862;28;20215;-70
2022/10/25 02:27:22;;;;;;;9.13;3.22;;;14.80;99.90;;;;;;5066047;28;20215;-70
2022/10/25 02:29:49;;;;;;;9.48;2.85;;;14.80;99.90;;;;;;5051303;28;20315;-70
2022/10/25 02:32:15;;;;;;;9.63;2.90;;;14.80;99.90;;;;;;5056924;28;20661;-70
2022/10/25 02:34:40;;;;;;;8.05;2.90;;;14.80;99.90;;;;;;5080647;28;20240;-69
2022/10/25 02:37:06;;;;;;;11.68;2.92;;;14.80;99.90;;;;;;5055350;28;20713;-70
2022/10/25 02:39:33;;;;;;;7.35;3.47;;;14.80;99.90;;;;;;5073191;28;20211;-68
2022/10/25 02:42:01;;;;;;;6.72;3.70;;;14.80;99.90;;;;;;5074489;28;20285;-70
2022/10/25 02:44:27;;;;;;;6.20;3.20;;;14.90;99.90;;;;;;5078381;28;20641;-70
2022/10/25 02:46:53;;;;;;;9.23;3.17;;;14.90;99.90;;;;;;5075407;28;20206;-67
2022/10/25 02:49:18;;;;;;;10.32;3.30;;;14.80;99.90;;;;;;5075558;28;20202;-70
2022/10/25 02:51:44;;;;;;;6.70;3.40;;;14.80;99.90;;;;;;5064361;28;20337;-69
2022/10/25 02:54:10;;;;;;;7.95;3.00;;;14.80;99.90;;;;;;5061594;28;20217;-70
2022/10/25 02:56:36;;;;;;;8.50;3.10;;;14.80;99.90;;;;;;5055377;28;20675;-70
2022/10/25 02:59:02;;;;;;;10.10;3.25;;;14.80;99.90;;;;;;5055861;28;20252;-70
2022/10/25 03:01:27;;;;;;;6.60;3.08;;;14.80;99.90;;;;;;5060453;28;20685;-70
2022/10/25 03:03:53;;;;;;;9.20;3.22;;;14.80;99.90;;;;;;5058757;28;20207;-68
2022/10/25 03:06:19;;;;;;;7.25;3.17;;;14.80;99.90;;;;;;5043697;28;20214;-70
2022/10/25 03:08:45;;;;;;;8.55;3.15;;;14.80;99.90;;;;;;5063424;28;20341;-69
2022/10/25 03:11:12;;;;;;;9.40;3.10;;;14.80;99.90;;;;;;5062305;28;20190;-69
2022/10/25 03:13:38;;;;;;;7.72;3.58;;;14.80;99.90;;;;;;5055002;28;20294;-69
2022/10/25 03:16:03;;;;;;;6.82;2.88;;;14.70;99.90;;;;;;5055176;28;20283;-70
2022/10/25 03:18:29;;;;;;;7.85;3.03;;;14.70;99.90;;;;;;5060138;28;20251;-70
2022/10/25 03:20:56;;;;;;;7.82;3.00;;;14.70;99.90;;;;;;5061458;28;20203;-70
2022/10/25 03:23:22;;;;;;;8.00;3.00;;;14.70;99.90;;;;;;5051068;28;20172;-70
2022/10/25 03:25:51;;;;;;;11.60;3.38;;;14.70;99.90;;;;;;5039752;28;20183;-70
2022/10/25 03:28:16;;;;;;;5.80;2.70;;;14.70;99.90;;;;;;5060886;28;20218;-71
2022/10/25 03:30:42;;;;;;;7.43;2.60;;;14.70;99.90;;;;;;5054441;28;20264;-70
2022/10/25 03:33:08;;;;;;;8.45;2.67;;;14.70;99.90;;;;;;5055653;28;20211;-70
2022/10/25 03:35:34;;;;;;;8.43;3.05;;;14.70;99.90;;;;;;5059348;28;20266;-68
2022/10/25 03:37:59;;;;;;;7.88;2.92;;;14.70;99.90;;;;;;5062432;28;20248;-69
2022/10/25 03:40:25;;;;;;;6.95;3.25;;;14.70;99.90;;;;;;5054183;28;20587;-70
2022/10/25 03:42:50;;;;;;;7.03;3.25;;;14.70;99.90;;;;;;5057613;28;20698;-70
2022/10/25 03:45:16;;;;;;;8.60;3.95;;;14.80;99.90;;;;;;5060638;28;20209;-69
2022/10/25 03:47:42;;;;;;;6.15;2.45;;;14.80;99.90;;;;;;5054251;28;20303;-70
2022/10/25 03:50:08;;;;;;;4.97;2.60;;;14.80;99.90;;;;;;5037320;28;20614;-70
2022/10/25 03:52:33;;;;;;;6.47;2.70;;;14.80;99.90;;;;;;5065211;28;20207;-69
2022/10/25 03:54:59;;;;;;;4.93;2.08;;;14.80;99.90;;;;;;5044533;28;20216;-70
2022/10/25 03:57:24;;;;;;;5.15;2.28;;;14.80;99.90;;;;;;5048139;28;20711;-71
2022/10/25 03:59:50;;;;;;;6.50;2.55;;;14.80;99.90;;;;;;5040767;28;20752;-70
2022/10/25 04:02:16;;;;;;;4.97;1.83;;;14.80;99.90;;;;;;5061175;28;20186;-70
2022/10/25 04:04:41;;;;;;;8.13;2.50;;;14.80;99.90;;;;;;5055056;28;20219;-70
2022/10/25 04:07:07;;;;;;;6.32;2.20;;;14.80;99.90;;;;;;5032451;28;20710;-70
2022/10/25 04:09:32;;;;;;;3.83;2.05;;;14.80;99.90;;;;;;5058628;28;20261;-69
2022/10/25 04:11:58;;;;;;;7.20;2.33;;;14.80;99.90;;;;;;5061039;28;20293;-70
2022/10/25 04:14:24;;;;;;;4.53;1.92;;;14.80;99.90;;;;;;5050223;28;20183;-69
2022/10/25 04:16:49;;;;;;;5.97;2.10;;;14.80;99.90;;;;;;5057433;28;20199;-70
2022/10/25 04:19:15;;;;;;;5.45;2.30;;;14.80;99.90;;;;;;5060157;28;20748;-68
2022/10/25 04:21:40;;;;;;;5.65;1.98;;;14.80;99.90;;;;;;5057442;28;20293;-70
2022/10/25 04:24:06;;;;;;;4.10;1.90;;;14.80;99.90;;;;;;5046441;28;20199;-70
2022/10/25 04:26:35;;;;;;;3.38;1.60;;;14.80;99.90;;;;;;5058239;28;20290;-68
2022/10/25 04:29:01;;;;;;;5.32;1.50;;;14.70;99.90;;;;;;5061288;28;20202;-70
2022/10/25 04:31:27;;;;;;;4.90;1.60;;;14.80;99.90;;;;;;5053295;28;20204;-70
2022/10/25 04:33:53;;;;;;;4.30;1.17;;;14.80;99.90;;;;;;5056690;28;20644;-67
2022/10/25 04:36:20;;;;;;;5.47;1.92;;;14.80;99.90;;;;;;5059901;28;20293;-70
2022/10/25 04:38:50;;;;;;;7.82;2.15;;;14.80;99.90;;;;;;5038562;28;20216;-70
2022/10/25 04:41:16;;;;;;;2.88;1.38;;;14.70;99.90;;;;;;5042107;28;20172;-70
2022/10/25 04:43:42;;;;;;;6.47;2.05;;;14.80;99.90;;;;;;5044222;28;20262;-69
2022/10/25 04:46:07;;;;;;;2.95;1.55;;;14.70;99.90;;;;;;5039945;28;20631;-69
2022/10/25 04:48:36;;;;;;;4.43;1.67;;;14.70;99.90;;;;;;5031573;28;20222;-69
2022/10/25 04:51:02;;;;;;;3.85;1.83;;;14.70;99.90;;;;;;5057742;28;20557;-70
2022/10/25 04:53:28;;;;;;;5.18;1.85;;;14.70;99.90;;;;;;5057515;28;20180;-70
2022/10/25 04:56:02;;;;;;;5.97;1.70;;;14.70;99.90;;;;;;5039579;28;20615;-68
2022/10/25 04:58:28;;;;;;;5.90;1.70;;;14.70;99.90;;;;;;5039901;28;20202;-70
2022/10/25 05:00:59;;;;;;;5.25;1.80;;;14.70;99.90;;;;;;5053688;28;20303;-70
2022/10/25 05:03:24;;;;;;;4.72;1.75;;;14.70;99.90;;;;;;5058617;28;20204;-69
2022/10/25 05:05:50;;;;;;;5.00;1.63;;;14.60;99.90;;;;;;5049281;28;20214;-70
2022/10/25 05:08:15;;;;;;;3.13;1.50;;;14.60;99.90;;;;;;5037597;28;20202;-69
2022/10/25 05:10:41;;;;;;;4.07;1.65;;;14.60;99.90;;;;;;5056258;28;20207;-70
2022/10/25 05:13:06;;;;;;;7.43;2.00;;;14.50;99.90;;;;;;5055670;28;20588;-70
2022/10/25 05:15:32;;;;;;;5.90;1.60;;;14.50;99.90;;;;;;5077586;28;20724;-68
2022/10/25 05:17:58;;;;;;;8.10;1.73;;;14.40;99.90;;;;;;5079990;28;20586;-70
2022/10/25 05:20:24;;;;;;;7.13;1.65;;;14.40;99.90;;;;;;5077889;28;20174;-70
2022/10/25 05:22:50;;;;;;;5.85;2.10;;;14.30;99.90;;;;;;5075544;28;20186;-70
2022/10/25 05:25:15;;;;;;;4.15;2.10;;;14.30;99.90;;;;;;5079779;28;20224;-70
2022/10/25 05:27:41;;;;;;;5.72;2.10;;;14.20;99.90;;;;;;5056918;28;21007;-70
2022/10/25 05:30:07;;;;;;;5.88;1.98;;;14.20;99.90;;;;;;5055653;28;20914;-70
2022/10/25 05:32:33;;;;;;;5.88;2.40;;;14.20;99.90;;;;;;5077036;28;20218;-69
2022/10/25 05:34:58;;;;;;;8.95;2.80;;;14.20;99.90;;;;;;5080560;28;20217;-70
2022/10/25 05:37:24;;;;;;;7.97;3.10;;;14.20;99.90;;;;;;5078104;28;20229;-69
2022/10/25 05:39:49;;;;;;;6.65;2.00;;;14.30;99.90;;;;;;5053072;28;20710;-69
2022/10/25 05:42:15;;;;;;;7.28;2.50;;;14.20;99.90;;;;;;5075974;28;20616;-70
2022/10/25 05:44:40;;;;;;;4.50;2.00;;;14.20;99.90;;;;;;5074043;28;20665;-72
2022/10/25 05:47:06;;;;;;;4.10;1.83;;;14.20;99.90;;;;;;5077211;28;20693;-69
2022/10/25 05:49:38;;;;;;;4.50;1.73;;;14.20;99.90;;;;;;5051721;28;20717;-68
2022/10/25 05:52:07;;;;;;;7.65;2.70;;;14.20;99.90;;;;;;5077254;28;20211;-70
2022/10/25 05:54:32;;;;;;;5.38;2.10;;;14.30;99.90;;;;;;5055320;28;20203;-69
2022/10/25 05:56:58;;;;;;;4.78;2.40;;;14.30;99.90;;;;;;5053228;28;20213;-70
2022/10/25 05:59:23;;;;;;;6.90;1.98;;;14.30;99.90;;;;;;5061030;28;20194;-70
2022/10/25 06:01:49;;;;;;;3.83;2.13;;;14.30;99.90;;;;;;5056785;28;20176;-70
2022/10/25 06:04:15;;;;;;;8.32;2.38;;;14.30;99.90;;;;;;5056966;28;20202;-67
2022/10/25 06:06:43;;;;;;;5.10;2.42;;;14.30;99.90;;;;;;5072980;28;20589;-69
2022/10/25 06:09:09;;;;;;;6.88;2.38;;;14.40;99.90;;;;;;5080748;28;20211;-68
2022/10/25 06:11:36;;;;;;;5.90;1.92;;;14.40;99.90;;;;;;5076461;28;20534;-69
2022/10/25 06:14:02;;;;;;;4.32;2.22;;;14.50;99.90;;;;;;5054050;28;20183;-69
2022/10/25 06:16:28;;;;;;;7.88;2.20;;;14.50;99.90;;;;;;5061427;28;20271;-69
2022/10/25 06:18:54;;;;;;;4.70;2.00;;;14.50;99.90;;;;;;5077475;28;20697;-68
2022/10/25 06:21:22;;;;;;;8.00;2.28;;;14.50;99.90;;;;;;5059902;28;20257;-69
2022/10/25 06:23:48;;;;;;;3.35;1.60;;;14.50;99.90;;;;;;5072820;28;20211;-70
2022/10/25 06:26:21;;;;;;;4.57;1.98;;;14.50;99.90;;;;;;5083416;28;20228;-69
2022/10/25 06:28:47;;;;;;;8.30;2.50;;;14.50;99.90;;;;;;5077076;28;20689;-69
2022/10/25 06:31:17;;;;;;;4.20;2.20;;;14.60;99.90;;;;;;5076359;28;20216;-69
2022/10/25 06:33:44;;;;;;;4.32;1.38;;;14.70;99.90;;;;;;5060407;28;20216;-69
2022/10/25 06:36:13;;;;;;;4.47;1.50;;;14.70;99.90;;;;;;5078927;28;20282;-69
2022/10/25 06:38:39;;;;;;;4.38;1.73;;;14.70;99.90;;;;;;5056422;28;20210;-69
2022/10/25 06:41:06;;;;;;;4.05;1.85;;;14.70;99.90;;;;;;5071907;28;20621;-70
2022/10/25 06:43:37;;;;;;;8.93;1.75;;;14.70;99.90;;;;;;5060733;28;20900;-68
2022/10/25 06:46:32;;;;;;;6.72;1.90;;;14.80;99.90;;;;;;5076628;28;20226;-70
2022/10/25 06:48:59;;;;;;;3.28;1.65;;;14.80;99.90;;;;;;5076717;28;20297;-70
2022/10/25 06:51:26;;;;;;;7.45;1.80;;;14.90;99.90;;;;;;5062370;28;20678;-69
2022/10/25 06:53:56;;;;;;;3.50;1.70;;;15.00;99.90;;;;;;5078765;28;20263;-70
2022/10/25 06:56:23;;;;;;;4.38;1.52;;;14.90;99.90;;;;;;5073788;28;20173;-71
2022/10/25 06:58:48;;;;;;;3.80;1.70;;;15.10;99.90;;;;;;5061113;28;20278;-71
2022/10/25 07:01:16;;;;;;;5.50;2.20;;;15.40;99.90;;;;;;5060586;28;20285;-71
2022/10/25 07:03:42;;;;;;;7.13;1.92;;;16.20;99.90;;;;;;5053483;28;20235;-68
2022/10/25 07:06:10;;;;;;;3.38;1.70;;;16.20;99.90;;;;;;5070000;28;20726;-71
2022/10/25 07:08:38;;;;;;;7.95;1.85;;;16.10;99.90;;;;;;5077787;28;20233;-68
2022/10/25 07:11:04;;;;;;;5.00;1.70;;;16.10;99.90;;;;;;5059751;28;20182;-69
2022/10/25 07:13:32;;;;;;;4.80;2.00;;;16.00;99.90;;;;;;5080413;28;20209;-68
2022/10/25 07:16:05;;;;;;;3.42;1.52;;;16.00;99.90;;;;;;5079381;28;20215;-68
2022/10/25 07:18:31;;;;;;;5.07;1.38;;;15.90;99.90;;;;;;5079894;28;20226;-68
2022/10/25 07:21:02;;;;;;;4.70;2.15;;;15.90;99.90;;;;;;5077912;28;20237;-69
2022/10/25 07:23:27;;;;;;;5.07;1.55;;;15.80;99.90;;;;;;5078184;28;20175;-69
2022/10/25 07:25:53;;;;;;;6.55;2.17;;;15.80;99.90;;;;;;5082660;28;20172;-66
2022/10/25 07:28:19;;;;;;;8.73;2.03;;;15.80;99.90;;;;;;5060589;28;20214;-68
2022/10/25 07:30:46;;;;;;;5.40;1.75;;;16.10;99.90;;;;;;5053309;28;20246;-69
2022/10/25 07:33:13;;;;;;;5.20;1.98;;;16.30;99.90;;;;;;5076866;28;20253;-69
2022/10/25 07:35:39;;;;;;;3.42;1.60;;;16.30;99.90;;;;;;5078865;28;20182;-70
2022/10/25 07:38:05;;;;;;;7.70;2.00;;;16.30;99.90;;;;;;5079174;28;20191;-70
2022/10/25 07:40:30;;;;;;;5.82;1.95;;;16.40;99.90;;;;;;5072823;28;20711;-70
2022/10/25 07:42:56;;;;;;;9.63;2.13;;;16.40;99.90;;;;;;5055990;28;20216;-70
2022/10/25 07:45:21;;;;;;;10.70;2.08;;;17.00;99.90;;;;;;5075879;28;20241;-70
2022/10/25 07:47:51;;;;;;;5.13;1.83;;;17.80;99.90;;;;;;5072245;28;20780;-71
2022/10/25 07:50:18;;;;;;;6.03;1.52;;;18.30;99.90;;;;;;5074840;28;20183;-70
2022/10/25 07:52:44;;;;;;;8.65;2.03;;;18.40;99.90;;;;;;5072886;28;20306;-70
2022/10/25 07:55:10;;;;;;;6.45;1.65;;;18.30;99.90;;;;;;5055152;28;20231;-71
2022/10/25 07:57:35;;;;;;;4.68;1.77;;;17.90;99.90;;;;;;5072449;28;20222;-70
2022/10/25 08:00:01;;;;;;;3.75;1.40;;;17.50;99.90;;;;;;5080162;28;20820;-70
2022/10/25 08:02:26;;;;;;;2.70;1.42;;;16.90;99.90;;;;;;5077840;28;20228;-70
2022/10/25 08:04:52;;;;;;;6.43;1.88;;;16.60;99.90;;;;;;5053759;28;20218;-70
2022/10/25 08:07:17;;;;;;;6.50;2.00;;;16.20;99.90;;;;;;5072008;28;20267;-70
2022/10/25 08:09:43;;;;;;;4.05;1.50;;;16.00;99.90;;;;;;5072242;28;20215;-71
2022/10/25 08:12:08;;;;;;;5.45;1.80;;;15.90;99.90;;;;;;5076058;28;20317;-71
2022/10/25 08:14:34;;;;;;;6.35;1.55;;;15.70;99.90;;;;;;5071788;28;20250;-68
2022/10/25 08:16:59;;;;;;;7.45;1.77;;;15.70;99.90;;;;;;5057905;28;20274;-70
2022/10/25 08:19:25;;;;;;;4.90;1.70;;;16.10;99.90;;;;;;5084612;22;20774;-70
2022/10/25 08:21:50;;;;;;;3.67;1.63;;;16.30;99.90;;;;;;5101253;28;20198;-70
2022/10/25 08:24:16;;;;;;;6.68;2.03;;;16.30;99.90;;;;;;5076103;28;20198;-70
2022/10/25 08:26:41;;;;;;;5.70;1.85;;;16.20;99.90;;;;;;5101437;28;20221;-70
2022/10/25 08:29:07;;;;;;;3.30;1.42;;;16.00;99.90;;;;;;5074530;28;20194;-70
2022/10/25 08:31:33;;;;;;;5.03;1.75;;;15.90;99.90;;;;;;5081947;28;20210;-70
2022/10/25 08:33:58;;;;;;;6.68;4.43;;;15.80;99.90;;;;;;5085485;28;20262;-70
2022/10/25 08:36:25;;;;;;;8.00;2.47;;;15.80;99.90;;;;;;5088725;28;20210;-72
2022/10/25 08:38:50;;;;;;;5.63;1.73;;;15.90;99.90;;;;;;5081856;28;20219;-70
2022/10/25 08:41:51;;;;;;;5.25;1.77;;;15.90;99.90;;;;;;5084561;28;20181;-70
2022/10/25 08:44:30;;;;;;;4.72;2.22;;;15.90;99.90;;;;;;5087126;28;20208;-70
2022/10/25 08:47:25;;;;;;;5.13;2.00;;;15.90;99.90;;;;;;5082515;28;20214;-72
2022/10/25 08:49:51;;;;;;;8.98;1.98;;;16.00;99.90;;;;;;5082027;28;20289;-70
2022/10/25 08:52:26;;;;;;;4.72;1.75;;;16.10;99.90;;;;;;5087140;28;20289;-70
2022/10/25 08:54:54;;;;;;;5.63;2.05;;;16.20;99.90;;;;;;5082685;28;20254;-69
2022/10/25 08:57:33;;;;;;;6.95;2.25;;;16.40;99.90;;;;;;5068374;28;20225;-70
2022/10/25 09:00:06;;;;;;;7.97;2.83;;;16.90;99.90;;;;;;5064824;28;20237;-70
2022/10/25 09:02:32;;;;;;;5.43;1.85;;;17.60;99.90;;;;;;5085954;28;20186;-72
2022/10/25 09:04:58;;;;;;;10.32;2.63;;;18.20;99.90;;;;;;5081116;28;20178;-70
2022/10/25 09:07:59;;;;;;;6.47;2.00;;;18.00;99.90;;;;;;5081702;28;20206;-70
2022/10/25 09:10:56;;;;;;;6.38;2.03;;;18.00;99.90;;;;;;5083055;28;20217;-70
2022/10/25 09:13:40;;;;;;;6.05;2.08;;;18.10;99.90;;;;;;5082546;28;20234;-70
2022/10/25 09:16:20;;;;;;;9.20;2.25;;;18.00;99.90;;;;;;5065200;28;20239;-70
2022/10/25 09:18:51;;;;;;;5.95;1.88;;;17.70;99.90;;;;;;5058421;28;20211;-70
2022/10/25 09:21:21;;;;;;;9.32;2.40;;;17.50;99.90;;;;;;5065607;28;20289;-70
2022/10/25 09:23:57;;;;;;;5.32;1.80;;;17.50;99.90;;;;;;5079042;28;20581;-70
2022/10/25 09:26:29;;;;;;;6.20;2.22;;;17.50;99.90;;;;;;5059209;28;20182;-71
2022/10/25 09:29:04;;;;;;;6.88;2.90;;;17.40;99.90;;;;;;5078774;28;20214;-70
2022/10/25 09:31:37;;;;;;;6.32;2.63;;;17.40;99.90;;;;;;5081110;28;20206;-71
2022/10/25 09:34:06;;;;;;;7.38;1.98;;;17.50;99.90;;;;;;5081645;28;20209;-70
2022/10/25 09:36:46;;;;;;;7.38;2.20;;;17.50;99.90;;;;;;5086177;28;20213;-69
2022/10/25 09:39:24;;;;;;;7.05;2.42;;;17.80;99.90;;;;;;5083037;28;20211;-70
2022/10/25 09:41:53;;;;;;;7.43;2.33;;;18.00;99.90;;;;;;5084309;28;20208;-71
2022/10/25 09:44:36;;;;;;;8.30;2.05;;;18.20;99.90;;;;;;5084270;28;20174;-71
2022/10/25 09:47:17;;;;;;;6.03;1.92;;;18.40;99.90;;;;;;5084379;28;20214;-71
2022/10/25 09:50:15;;;;;;;7.15;1.80;;;18.30;99.90;;;;;;5078422;28;20571;-71
2022/10/25 09:53:02;;;;;;;7.28;2.00;;;18.20;99.90;;;;;;5070562;28;20256;-71
2022/10/25 09:55:57;;;;;;;5.07;2.40;;;18.10;99.90;;;;;;5081140;28;20754;-71
2022/10/25 09:58:25;;;;;;;6.10;1.77;;;18.10;99.90;;;;;;5081756;28;20297;-71
2022/10/25 10:00:53;;;;;;;8.05;1.92;;;17.80;99.90;;;;;;5089944;28;20297;-71
2022/10/25 10:03:19;;;;;;;6.05;3.22;;;17.70;99.90;;;;;;5064605;28;20203;-71
2022/10/25 10:05:53;;;;;;;10.73;4.07;;;17.60;99.90;;;;;;5065871;28;20217;-71
2022/10/25 10:08:19;;;;;;;7.55;3.15;;;17.40;99.90;;;;;;5087999;28;20216;-72
2022/10/25 10:10:48;;;;;;;6.55;2.90;;;17.20;99.90;;;;;;5070291;28;20182;-71
2022/10/25 10:13:32;;;;;;;7.10;2.20;;;17.20;99.90;;;;;;5086711;28;20195;-72
2022/10/25 10:16:26;;;;;;;6.38;2.28;;;17.10;99.90;;;;;;5065012;28;20207;-71
2022/10/25 10:19:11;;;;;;;5.50;1.80;;;17.10;99.90;;;;;;5081322;28;20287;-71
2022/10/25 10:21:42;;;;;;;5.18;1.90;;;17.10;99.90;;;;;;5085104;28;20212;-71
2022/10/25 10:24:18;;;;;;;5.60;2.40;;;17.00;99.90;;;;;;5064287;28;20207;-71
2022/10/25 10:27:05;;;;;;;7.55;2.17;;;16.90;99.90;;;;;;5090428;28;20217;-71
2022/10/25 10:29:35;;;;;;;4.90;1.80;;;16.80;99.90;;;;;;5086977;28;20202;-71
2022/10/25 10:32:20;;;;;;;6.35;2.03;;;16.80;99.90;;;;;;5083000;28;20198;-71
2022/10/25 10:34:52;;;;;;;7.82;1.80;;;16.70;99.90;;;;;;5063103;28;20625;-71
2022/10/25 10:37:26;;;;;;;8.48;2.20;;;16.80;99.90;;;;;;5085663;28;20206;-71
2022/10/25 10:40:00;;;;;;;7.20;1.95;;;16.80;99.90;;;;;;5084407;28;20250;-71
2022/10/25 10:42:28;;;;;;;5.57;1.85;;;16.80;99.90;;;;;;5088105;28;20205;-71
2022/10/25 10:45:08;;;;;;;7.10;2.25;;;16.80;99.90;;;;;;5086679;28;20210;-71
2022/10/25 10:47:36;;;;;;;6.38;2.20;;;16.80;99.90;;;;;;5063016;28;20248;-72
2022/10/25 10:50:19;;;;;;;6.97;2.08;;;16.90;99.90;;;;;;5083907;28;20669;-71
2022/10/25 10:52:45;;;;;;;4.43;1.77;;;16.80;99.90;;;;;;5079326;28;20636;-72
2022/10/25 10:55:36;;;;;;;7.25;2.00;;;16.90;99.90;;;;;;5067368;28;20199;-71
2022/10/25 10:58:27;;;;;;;4.63;2.00;;;16.90;99.90;;;;;;5081076;28;20203;-71
2022/10/25 11:00:59;;;;;;;2.85;1.83;;;17.00;99.90;;;;;;5085715;28;20214;-71
2022/10/25 11:03:40;;;;;;;5.88;2.40;;;17.10;99.90;;;;;;5065678;28;20216;-71
2022/10/25 11:06:26;;;;;;;8.80;2.60;;;17.30;99.90;;;;;;5062287;28;20364;-71
2022/10/25 11:09:11;;;;;;;5.07;1.98;;;17.60;99.90;;;;;;5053274;28;20221;-71
2022/10/25 11:11:37;;;;;;;8.02;2.40;;;17.80;99.90;;;;;;5086937;28;20235;-71
2022/10/25 11:14:13;;;;;;;4.20;2.05;;;17.70;99.90;;;;;;5083294;28;20183;-71
2022/10/25 11:17:00;;;;;;;6.30;2.20;;;17.80;99.90;;;;;;5086914;28;20289;-71
2022/10/25 11:19:41;;;;;;;6.75;2.28;;;17.90;99.90;;;;;;5081994;28;20647;-72
2022/10/25 11:22:35;;;;;;;7.32;2.08;;;18.00;99.90;;;;;;5084195;28;20232;-72
2022/10/25 11:25:33;;;;;;;7.32;2.42;;;17.90;99.90;;;;;;5084198;28;20624;-71
2022/10/25 11:28:38;;;;;;;6.82;2.42;;;17.90;99.90;;;;;;5080953;28;20225;-72
2022/10/25 11:31:16;;;;;;;7.78;2.40;;;17.80;99.90;;;;;;5082446;28;20202;-71
2022/10/25 11:33:57;;;;;;;6.97;2.05;;;17.60;99.90;;;;;;5065504;28;20293;-71
2022/10/25 11:37:01;;;;;;;7.80;2.63;;;17.60;99.90;;;;;;5085677;28;20220;-71
2022/10/25 11:39:26;;;;;;;5.00;2.13;;;17.70;99.90;;;;;;5084370;28;20580;-71
2022/10/25 11:41:59;;;;;;;6.50;2.42;;;17.80;99.90;;;;;;5081882;28;20201;-71
2022/10/25 11:44:41;;;;;;;7.72;2.22;;;17.90;99.90;;;;;;5062811;28;20235;-71
2022/10/25 11:47:42;;;;;;;6.05;2.45;;;17.90;99.90;;;;;;5084168;28;20210;-71
2022/10/25 11:51:06;;;;;;;7.40;2.95;;;18.10;99.90;;;;;;5081506;28;20234;-71
2022/10/25 11:53:59;;;;;;;5.57;2.10;;;18.40;99.90;;;;;;4998836;28;20606;-71
2022/10/25 11:56:29;;;;;;;7.40;2.63;;;18.60;99.90;;;;;;5083693;28;20247;-72
2022/10/25 11:59:18;;;;;;;6.15;2.00;;;18.70;99.90;;;;;;5083177;28;20206;-71
2022/10/25 12:02:11;;;;;;;5.60;1.90;;;18.50;99.90;;;;;;5084393;28;20209;-71
2022/10/25 12:04:45;;;;;;;4.32;1.95;;;18.50;99.90;;;;;;5083346;28;20221;-72
2022/10/25 12:07:35;;;;;;;5.72;2.40;;;18.40;99.90;;;;;;5081163;28;20757;-72
2022/10/25 12:10:45;;;;;;;6.35;2.03;;;18.60;99.90;;;;;;5062253;28;20226;-72
2022/10/25 12:13:32;;;;;;;8.50;2.55;;;18.50;99.90;;;;;;5075945;28;20207;-72
2022/10/25 12:15:58;;;;;;;9.15;2.55;;;18.60;99.90;;;;;;5079405;28;20215;-72
2022/10/25 12:18:43;;;;;;;5.55;2.20;;;18.50;99.90;;;;;;5064107;28;20693;-72
2022/10/25 12:21:16;;;;;;;3.15;1.70;;;18.20;99.90;;;;;;5082924;28;20218;-72
2022/10/25 12:23:48;;;;;;;6.97;1.95;;;18.10;99.90;;;;;;5080746;28;20206;-72
2022/10/25 12:26:35;;;;;;;4.07;1.90;;;18.20;99.90;;;;;;5088137;28;20673;-72
2022/10/25 12:29:04;;;;;;;9.43;2.28;;;18.40;99.90;;;;;;5085303;28;20225;-71
2022/10/25 12:31:37;;;;;;;5.60;1.73;;;18.40;99.90;;;;;;5079399;28;20234;-72
2022/10/25 12:34:18;;;;;;;7.70;2.25;;;18.40;99.90;;;;;;5064302;28;20217;-73
2022/10/25 12:36:54;;;;;;;5.63;1.60;;;18.40;99.90;;;;;;5083658;28;20226;-72
2022/10/25 12:39:29;;;;;;;8.73;1.85;;;18.40;99.90;;;;;;5082541;28;20217;-72
2022/10/25 12:42:06;;;;;;;4.43;1.95;;;18.40;99.90;;;;;;5065485;28;20701;-72
2022/10/25 12:44:44;;;;;;;6.13;1.77;;;18.30;99.90;;;;;;5087197;28;20261;-72
2022/10/25 12:47:27;;;;;;;6.35;1.95;;;18.10;99.90;;;;;;5083642;28;20280;-72
2022/10/25 12:50:10;;;;;;;5.55;2.10;;;18.00;99.90;;;;;;5077109;28;20215;-72
2022/10/25 12:52:55;;;;;;;6.18;2.00;;;17.70;99.90;;;;;;5087834;28;20342;-72
2022/10/25 12:55:36;;;;;;;7.25;2.42;;;17.60;99.90;;;;;;5059461;28;20194;-72
2022/10/25 12:58:28;;;;;;;7.15;2.30;;;17.70;99.90;;;;;;5079999;28;20210;-72
2022/10/25 13:01:12;;;;;;;6.35;2.33;;;17.70;99.90;;;;;;5058945;28;20214;-72
2022/10/25 13:03:54;;;;;;;4.28;1.70;;;17.60;99.90;;;;;;5083007;28;20576;-71
2022/10/25 13:06:36;;;;;;;7.78;2.25;;;17.60;99.90;;;;;;5081780;28;20198;-72
2022/10/25 13:09:09;;;;;;;4.70;1.75;;;17.60;99.90;;;;;;5085506;28;20296;-72
2022/10/25 13:11:41;;;;;;;6.72;2.17;;;17.50;99.90;;;;;;5087568;28;20182;-71
2022/10/25 13:14:26;;;;;;;7.95;2.50;;;17.50;99.90;;;;;;5081855;28;20172;-71